Pioneer, New York
Current Conditions -  °F | °C
As of 3:51 PM on Saturday 22 Nov 2014 (Local Time) from KALB Reporting Station
Light Rain Light Rain  
Wind Chill: 30°   Ceiling: 4300
Heat Index: 36°   Visibility: 9mi
Dew Point: 19°   Wind: 7mph
Humidity: 50%   Direction: 170°S
Pressure: 30.12"   Gusts: NA
Location:  43.002°N, 73.8759°W
Report Text: KALB 222051Z 17006KT 9SM -RA BKN043 OVC050 02/M07 A3012 RMK AO2 RAE18B34PLB18E48 SLP202 P0000 60000 T00221072 58031
Loading
Personal Weather Stations






























Interactive Weather Map New forecast layout! Learn more

10-Day Weather Forecast

Advertisements
Track Severe Weather on mobile